sensor_id;sensor_type;location;lat;lon;timestamp;temperature;humidity
16513;DHT22;8369;48.030;11.598;2023-07-13T00:01:29;20.70;99.90
16513;DHT22;8369;48.030;11.598;2023-07-13T00:03:56;20.60;99.90
16513;DHT22;8369;48.030;11.598;2023-07-13T00:06:22;20.60;99.90
16513;DHT22;8369;48.030;11.598;2023-07-13T00:08:48;20.60;99.90
16513;DHT22;8369;48.030;11.598;2023-07-13T00:11:15;20.60;99.90
16513;DHT22;8369;48.030;11.598;2023-07-13T00:13:42;20.60;99.90
16513;DHT22;8369;48.030;11.598;2023-07-13T00:16:09;20.60;99.90
16513;DHT22;8369;48.030;11.598;2023-07-13T00:18:39;20.60;99.90
16513;DHT22;8369;48.030;11.598;2023-07-13T00:21:08;20.50;99.90
16513;DHT22;8369;48.030;11.598;2023-07-13T00:23:36;20.50;99.90
16513;DHT22;8369;48.030;11.598;2023-07-13T00:26:03;20.50;99.90
16513;DHT22;8369;48.030;11.598;2023-07-13T00:28:30;20.50;99.90
16513;DHT22;8369;48.030;11.598;2023-07-13T00:30:56;20.40;99.90
16513;DHT22;8369;48.030;11.598;2023-07-13T00:33:21;20.50;99.90
16513;DHT22;8369;48.030;11.598;2023-07-13T00:35:48;20.50;99.90
16513;DHT22;8369;48.030;11.598;2023-07-13T00:38:15;20.50;99.90
16513;DHT22;8369;48.030;11.598;2023-07-13T00:40:40;20.50;99.90
16513;DHT22;8369;48.030;11.598;2023-07-13T00:43:17;20.50;99.90
16513;DHT22;8369;48.030;11.598;2023-07-13T00:48:15;20.50;99.90
16513;DHT22;8369;48.030;11.598;2023-07-13T00:50:44;20.50;99.90
16513;DHT22;8369;48.030;11.598;2023-07-13T00:53:13;20.50;99.90
16513;DHT22;8369;48.030;11.598;2023-07-13T00:55:39;20.50;99.90
16513;DHT22;8369;48.030;11.598;2023-07-13T00:58:08;20.50;99.90
16513;DHT22;8369;48.030;11.598;2023-07-13T01:00:38;20.50;99.90
16513;DHT22;8369;48.030;11.598;2023-07-13T01:03:05;20.50;99.90
16513;DHT22;8369;48.030;11.598;2023-07-13T01:05:33;20.40;99.90
16513;DHT22;8369;48.030;11.598;2023-07-13T01:08:01;20.40;99.90
16513;DHT22;8369;48.030;11.598;2023-07-13T01:10:27;20.40;99.90
16513;DHT22;8369;48.030;11.598;2023-07-13T01:12:54;20.40;99.90
16513;DHT22;8369;48.030;11.598;2023-07-13T01:15:40;20.40;99.90
16513;DHT22;8369;48.030;11.598;2023-07-13T01:18:09;20.40;99.90
16513;DHT22;8369;48.030;11.598;2023-07-13T01:20:36;20.30;99.90
16513;DHT22;8369;48.030;11.598;2023-07-13T01:23:08;20.40;99.90
16513;DHT22;8369;48.030;11.598;2023-07-13T01:25:35;20.30;99.90
16513;DHT22;8369;48.030;11.598;2023-07-13T01:28:03;20.30;99.90
16513;DHT22;8369;48.030;11.598;2023-07-13T01:30:30;20.30;99.90
16513;DHT22;8369;48.030;11.598;2023-07-13T01:32:57;20.30;99.90
16513;DHT22;8369;48.030;11.598;2023-07-13T01:35:24;20.30;99.90
16513;DHT22;8369;48.030;11.598;2023-07-13T01:37:52;20.30;99.90
16513;DHT22;8369;48.030;11.598;2023-07-13T01:40:19;20.30;99.90
16513;DHT22;8369;48.030;11.598;2023-07-13T01:42:45;20.30;99.90
16513;DHT22;8369;48.030;11.598;2023-07-13T01:45:11;20.20;99.90
16513;DHT22;8369;48.030;11.598;2023-07-13T01:47:37;20.20;99.90
16513;DHT22;8369;48.030;11.598;2023-07-13T01:50:03;20.20;99.90
16513;DHT22;8369;48.030;11.598;2023-07-13T01:52:29;20.20;99.90
16513;DHT22;8369;48.030;11.598;2023-07-13T01:54:55;20.20;99.90
16513;DHT22;8369;48.030;11.598;2023-07-13T01:57:20;20.10;99.90
16513;DHT22;8369;48.030;11.598;2023-07-13T01:59:46;20.10;99.90
16513;DHT22;8369;48.030;11.598;2023-07-13T02:02:12;20.10;99.90
16513;DHT22;8369;48.030;11.598;2023-07-13T02:04:38;20.20;99.90
16513;DHT22;8369;48.030;11.598;2023-07-13T02:07:04;20.20;99.90
16513;DHT22;8369;48.030;11.598;2023-07-13T02:09:30;20.20;99.90
16513;DHT22;8369;48.030;11.598;2023-07-13T02:11:57;20.20;99.90
16513;DHT22;8369;48.030;11.598;2023-07-13T02:14:22;20.20;99.90
16513;DHT22;8369;48.030;11.598;2023-07-13T02:16:51;20.20;99.90
16513;DHT22;8369;48.030;11.598;2023-07-13T02:19:16;20.20;99.90
16513;DHT22;8369;48.030;11.598;2023-07-13T02:21:43;20.20;99.90
16513;DHT22;8369;48.030;11.598;2023-07-13T02:24:09;20.20;99.90
16513;DHT22;8369;48.030;11.598;2023-07-13T02:26:35;20.10;99.90
16513;DHT22;8369;48.030;11.598;2023-07-13T02:29:01;20.10;99.90
16513;DHT22;8369;48.030;11.598;2023-07-13T02:31:29;20.10;99.90
16513;DHT22;8369;48.030;11.598;2023-07-13T02:33:55;20.10;99.90
16513;DHT22;8369;48.030;11.598;2023-07-13T02:36:20;20.10;99.90
16513;DHT22;8369;48.030;11.598;2023-07-13T02:38:47;20.10;99.90
16513;DHT22;8369;48.030;11.598;2023-07-13T02:41:14;20.10;99.90
16513;DHT22;8369;48.030;11.598;2023-07-13T02:43:40;20.10;99.90
16513;DHT22;8369;48.030;11.598;2023-07-13T02:46:06;20.10;99.90
16513;DHT22;8369;48.030;11.598;2023-07-13T02:48:36;20.10;99.90
16513;DHT22;8369;48.030;11.598;2023-07-13T02:51:02;20.10;99.90
16513;DHT22;8369;48.030;11.598;2023-07-13T02:53:29;20.10;99.90
16513;DHT22;8369;48.030;11.598;2023-07-13T02:55:54;20.10;99.90
16513;DHT22;8369;48.030;11.598;2023-07-13T02:58:22;20.10;99.90
16513;DHT22;8369;48.030;11.598;2023-07-13T03:00:51;20.10;99.90
16513;DHT22;8369;48.030;11.598;2023-07-13T03:03:17;20.10;99.90
16513;DHT22;8369;48.030;11.598;2023-07-13T03:05:44;20.10;99.90
16513;DHT22;8369;48.030;11.598;2023-07-13T03:08:16;20.20;99.90
16513;DHT22;8369;48.030;11.598;2023-07-13T03:10:42;20.20;99.90
16513;DHT22;8369;48.030;11.598;2023-07-13T03:13:08;20.20;99.90
16513;DHT22;8369;48.030;11.598;2023-07-13T03:15:34;20.20;99.90
16513;DHT22;8369;48.030;11.598;2023-07-13T03:18:05;20.20;99.90
16513;DHT22;8369;48.030;11.598;2023-07-13T03:20:33;20.10;99.90
16513;DHT22;8369;48.030;11.598;2023-07-13T03:22:59;20.10;99.90
16513;DHT22;8369;48.030;11.598;2023-07-13T03:25:25;20.10;99.90
16513;DHT22;8369;48.030;11.598;2023-07-13T03:27:51;20.00;99.90
16513;DHT22;8369;48.030;11.598;2023-07-13T03:30:16;20.00;99.90
16513;DHT22;8369;48.030;11.598;2023-07-13T03:32:45;19.90;99.90
16513;DHT22;8369;48.030;11.598;2023-07-13T03:35:11;19.80;99.90
16513;DHT22;8369;48.030;11.598;2023-07-13T03:37:39;19.70;99.90
16513;DHT22;8369;48.030;11.598;2023-07-13T03:40:11;19.60;99.90
16513;DHT22;8369;48.030;11.598;2023-07-13T03:42:37;19.50;99.90
16513;DHT22;8369;48.030;11.598;2023-07-13T03:45:04;19.50;99.90
16513;DHT22;8369;48.030;11.598;2023-07-13T03:47:30;19.40;99.90
16513;DHT22;8369;48.030;11.598;2023-07-13T03:49:56;19.40;99.90
16513;DHT22;8369;48.030;11.598;2023-07-13T03:52:21;19.40;99.90
16513;DHT22;8369;48.030;11.598;2023-07-13T03:54:47;19.40;99.90
16513;DHT22;8369;48.030;11.598;2023-07-13T03:57:16;19.40;99.90
16513;DHT22;8369;48.030;11.598;2023-07-13T03:59:42;19.40;99.90
16513;DHT22;8369;48.030;11.598;2023-07-13T04:02:08;19.40;99.90
16513;DHT22;8369;48.030;11.598;2023-07-13T04:04:34;19.40;99.90
16513;DHT22;8369;48.030;11.598;2023-07-13T04:07:00;19.40;99.90
16513;DHT22;8369;48.030;11.598;2023-07-13T04:09:27;19.40;99.90
16513;DHT22;8369;48.030;11.598;2023-07-13T04:11:53;19.50;99.90
16513;DHT22;8369;48.030;11.598;2023-07-13T04:14:18;19.50;99.90
16513;DHT22;8369;48.030;11.598;2023-07-13T04:16:44;19.50;99.90
16513;DHT22;8369;48.030;11.598;2023-07-13T04:19:11;19.50;99.90
16513;DHT22;8369;48.030;11.598;2023-07-13T04:21:37;19.50;99.90
16513;DHT22;8369;48.030;11.598;2023-07-13T04:24:03;19.50;99.90
16513;DHT22;8369;48.030;11.598;2023-07-13T04:26:35;19.50;99.90
16513;DHT22;8369;48.030;11.598;2023-07-13T04:29:04;19.50;99.90
16513;DHT22;8369;48.030;11.598;2023-07-13T04:31:30;19.50;99.90
16513;DHT22;8369;48.030;11.598;2023-07-13T04:34:01;19.50;99.90
16513;DHT22;8369;48.030;11.598;2023-07-13T04:36:28;19.50;99.90
16513;DHT22;8369;48.030;11.598;2023-07-13T04:38:54;19.50;99.90
16513;DHT22;8369;48.030;11.598;2023-07-13T04:41:26;19.40;99.90
16513;DHT22;8369;48.030;11.598;2023-07-13T04:43:53;19.40;99.90
16513;DHT22;8369;48.030;11.598;2023-07-13T04:46:19;19.30;99.90
16513;DHT22;8369;48.030;11.598;2023-07-13T04:48:45;19.30;99.90
16513;DHT22;8369;48.030;11.598;2023-07-13T04:51:11;19.30;99.90
16513;DHT22;8369;48.030;11.598;2023-07-13T04:53:37;19.30;99.90
16513;DHT22;8369;48.030;11.598;2023-07-13T04:56:03;19.30;99.90
16513;DHT22;8369;48.030;11.598;2023-07-13T04:58:30;19.30;99.90
16513;DHT22;8369;48.030;11.598;2023-07-13T05:01:03;19.30;99.90
16513;DHT22;8369;48.030;11.598;2023-07-13T05:03:29;19.20;99.90
16513;DHT22;8369;48.030;11.598;2023-07-13T05:06:01;19.20;99.90
16513;DHT22;8369;48.030;11.598;2023-07-13T05:08:27;19.30;99.90
16513;DHT22;8369;48.030;11.598;2023-07-13T05:10:53;19.30;99.90
16513;DHT22;8369;48.030;11.598;2023-07-13T05:13:19;19.30;99.90
16513;DHT22;8369;48.030;11.598;2023-07-13T05:15:45;19.30;99.90
16513;DHT22;8369;48.030;11.598;2023-07-13T05:18:13;19.30;99.90
16513;DHT22;8369;48.030;11.598;2023-07-13T05:20:39;19.30;99.90
16513;DHT22;8369;48.030;11.598;2023-07-13T05:23:05;19.40;99.90
16513;DHT22;8369;48.030;11.598;2023-07-13T05:25:31;19.40;99.90
16513;DHT22;8369;48.030;11.598;2023-07-13T05:27:57;19.40;99.90
16513;DHT22;8369;48.030;11.598;2023-07-13T05:30:22;19.40;99.90
16513;DHT22;8369;48.030;11.598;2023-07-13T05:32:48;19.50;99.90
16513;DHT22;8369;48.030;11.598;2023-07-13T05:35:17;19.50;99.90
16513;DHT22;8369;48.030;11.598;2023-07-13T05:37:46;19.50;99.90
16513;DHT22;8369;48.030;11.598;2023-07-13T05:40:12;19.60;99.90
16513;DHT22;8369;48.030;11.598;2023-07-13T05:42:38;19.60;99.90
16513;DHT22;8369;48.030;11.598;2023-07-13T05:45:03;19.60;99.90
16513;DHT22;8369;48.030;11.598;2023-07-13T05:47:29;19.60;99.90
16513;DHT22;8369;48.030;11.598;2023-07-13T05:49:58;19.60;99.90
16513;DHT22;8369;48.030;11.598;2023-07-13T05:52:34;19.60;99.90
16513;DHT22;8369;48.030;11.598;2023-07-13T05:55:00;19.60;99.90
16513;DHT22;8369;48.030;11.598;2023-07-13T05:57:26;19.60;99.90
16513;DHT22;8369;48.030;11.598;2023-07-13T05:59:52;19.60;99.90
16513;DHT22;8369;48.030;11.598;2023-07-13T06:02:18;19.60;99.90
16513;DHT22;8369;48.030;11.598;2023-07-13T06:04:44;19.70;99.90
16513;DHT22;8369;48.030;11.598;2023-07-13T06:07:09;19.70;99.90
16513;DHT22;8369;48.030;11.598;2023-07-13T06:09:35;19.80;99.90
16513;DHT22;8369;48.030;11.598;2023-07-13T06:12:05;19.80;99.90
16513;DHT22;8369;48.030;11.598;2023-07-13T06:14:31;19.90;99.90
16513;DHT22;8369;48.030;11.598;2023-07-13T06:16:57;19.90;99.90
16513;DHT22;8369;48.030;11.598;2023-07-13T06:19:23;19.90;99.90
16513;DHT22;8369;48.030;11.598;2023-07-13T06:21:49;20.00;99.90
16513;DHT22;8369;48.030;11.598;2023-07-13T06:24:36;20.00;99.90
16513;DHT22;8369;48.030;11.598;2023-07-13T06:27:03;20.00;99.90
16513;DHT22;8369;48.030;11.598;2023-07-13T06:29:30;20.00;99.90
16513;DHT22;8369;48.030;11.598;2023-07-13T06:31:57;20.00;99.90
16513;DHT22;8369;48.030;11.598;2023-07-13T06:34:23;20.10;99.90
16513;DHT22;8369;48.030;11.598;2023-07-13T06:36:49;20.10;99.90
16513;DHT22;8369;48.030;11.598;2023-07-13T06:39:15;20.10;99.90
16513;DHT22;8369;48.030;11.598;2023-07-13T06:41:42;20.10;99.90
16513;DHT22;8369;48.030;11.598;2023-07-13T06:44:08;20.10;99.90
16513;DHT22;8369;48.030;11.598;2023-07-13T06:46:35;20.10;99.90
16513;DHT22;8369;48.030;11.598;2023-07-13T06:49:01;20.10;99.90
16513;DHT22;8369;48.030;11.598;2023-07-13T06:51:27;20.20;99.90
16513;DHT22;8369;48.030;11.598;2023-07-13T06:53:54;20.20;99.90
16513;DHT22;8369;48.030;11.598;2023-07-13T06:56:22;20.20;99.90
16513;DHT22;8369;48.030;11.598;2023-07-13T06:58:48;20.30;99.90
16513;DHT22;8369;48.030;11.598;2023-07-13T07:01:14;20.30;99.90
16513;DHT22;8369;48.030;11.598;2023-07-13T07:03:41;20.30;99.90
16513;DHT22;8369;48.030;11.598;2023-07-13T07:06:20;20.30;99.90
16513;DHT22;8369;48.030;11.598;2023-07-13T07:08:56;20.30;99.90
16513;DHT22;8369;48.030;11.598;2023-07-13T07:11:25;20.30;99.90
16513;DHT22;8369;48.030;11.598;2023-07-13T07:13:52;20.30;99.90
16513;DHT22;8369;48.030;11.598;2023-07-13T07:16:19;20.30;99.90
16513;DHT22;8369;48.030;11.598;2023-07-13T07:18:46;20.40;99.90
16513;DHT22;8369;48.030;11.598;2023-07-13T07:21:13;20.40;99.90
16513;DHT22;8369;48.030;11.598;2023-07-13T07:23:42;20.40;99.90
16513;DHT22;8369;48.030;11.598;2023-07-13T07:26:08;20.40;99.90
16513;DHT22;8369;48.030;11.598;2023-07-13T07:28:36;20.40;99.90
16513;DHT22;8369;48.030;11.598;2023-07-13T07:31:02;20.50;99.90
16513;DHT22;8369;48.030;11.598;2023-07-13T07:33:28;20.50;99.90
16513;DHT22;8369;48.030;11.598;2023-07-13T07:35:54;20.50;99.90
16513;DHT22;8369;48.030;11.598;2023-07-13T07:38:22;20.50;99.90
16513;DHT22;8369;48.030;11.598;2023-07-13T07:40:48;20.50;99.90
16513;DHT22;8369;48.030;11.598;2023-07-13T07:43:14;20.50;99.90
16513;DHT22;8369;48.030;11.598;2023-07-13T07:45:40;20.50;99.90
16513;DHT22;8369;48.030;11.598;2023-07-13T07:48:08;20.50;99.90
16513;DHT22;8369;48.030;11.598;2023-07-13T07:50:36;20.50;99.90
16513;DHT22;8369;48.030;11.598;2023-07-13T07:53:05;20.50;99.90
16513;DHT22;8369;48.030;11.598;2023-07-13T07:55:34;20.40;99.90
16513;DHT22;8369;48.030;11.598;2023-07-13T07:58:03;20.40;99.90
16513;DHT22;8369;48.030;11.598;2023-07-13T08:00:29;20.40;99.90
16513;DHT22;8369;48.030;11.598;2023-07-13T08:02:58;20.40;99.90
16513;DHT22;8369;48.030;11.598;2023-07-13T08:05:25;20.30;99.90
16513;DHT22;8369;48.030;11.598;2023-07-13T08:07:52;20.30;99.90
16513;DHT22;8369;48.030;11.598;2023-07-13T08:10:19;20.30;99.90
16513;DHT22;8369;48.030;11.598;2023-07-13T08:12:46;20.20;99.90
16513;DHT22;8369;48.030;11.598;2023-07-13T08:15:16;20.20;99.90
16513;DHT22;8369;48.030;11.598;2023-07-13T08:17:43;20.30;99.90
16513;DHT22;8369;48.030;11.598;2023-07-13T08:20:11;20.10;99.90
16513;DHT22;8369;48.030;11.598;2023-07-13T08:22:39;20.10;99.90
16513;DHT22;8369;48.030;11.598;2023-07-13T08:25:07;20.00;99.90
16513;DHT22;8369;48.030;11.598;2023-07-13T08:27:34;19.90;99.90
16513;DHT22;8369;48.030;11.598;2023-07-13T08:30:01;19.90;99.90
16513;DHT22;8369;48.030;11.598;2023-07-13T08:32:27;19.90;99.90
16513;DHT22;8369;48.030;11.598;2023-07-13T08:34:54;19.90;99.90
16513;DHT22;8369;48.030;11.598;2023-07-13T08:37:22;19.80;99.90
16513;DHT22;8369;48.030;11.598;2023-07-13T08:39:49;19.70;99.90
16513;DHT22;8369;48.030;11.598;2023-07-13T08:45:14;19.60;99.90
16513;DHT22;8369;48.030;11.598;2023-07-13T08:48:05;19.60;99.90
16513;DHT22;8369;48.030;11.598;2023-07-13T08:50:37;19.70;99.90
16513;DHT22;8369;48.030;11.598;2023-07-13T08:53:32;19.70;99.90
16513;DHT22;8369;48.030;11.598;2023-07-13T08:56:02;19.70;99.90
16513;DHT22;8369;48.030;11.598;2023-07-13T08:58:29;19.70;99.90
16513;DHT22;8369;48.030;11.598;2023-07-13T09:12:09;19.70;99.90
16513;DHT22;8369;48.030;11.598;2023-07-13T09:17:19;19.80;99.90
16513;DHT22;8369;48.030;11.598;2023-07-13T09:19:50;19.80;99.90
16513;DHT22;8369;48.030;11.598;2023-07-13T09:22:23;19.90;99.90
16513;DHT22;8369;48.030;11.598;2023-07-13T09:25:23;19.90;99.90
16513;DHT22;8369;48.030;11.598;2023-07-13T09:27:52;19.90;99.90
16513;DHT22;8369;48.030;11.598;2023-07-13T09:33:11;19.90;99.90
16513;DHT22;8369;48.030;11.598;2023-07-13T09:35:38;19.90;99.90
16513;DHT22;8369;48.030;11.598;2023-07-13T09:38:18;19.90;99.90
16513;DHT22;8369;48.030;11.598;2023-07-13T09:43:28;19.70;99.90
16513;DHT22;8369;48.030;11.598;2023-07-13T09:45:55;19.70;99.90
16513;DHT22;8369;48.030;11.598;2023-07-13T09:48:23;19.80;99.90
16513;DHT22;8369;48.030;11.598;2023-07-13T09:50:54;19.80;99.90
16513;DHT22;8369;48.030;11.598;2023-07-13T09:53:22;19.80;99.90
16513;DHT22;8369;48.030;11.598;2023-07-13T09:55:49;19.80;99.90
16513;DHT22;8369;48.030;11.598;2023-07-13T09:58:24;19.80;99.90
16513;DHT22;8369;48.030;11.598;2023-07-13T10:00:57;19.90;99.90
16513;DHT22;8369;48.030;11.598;2023-07-13T10:03:30;19.90;99.90
16513;DHT22;8369;48.030;11.598;2023-07-13T10:06:19;20.00;99.90
16513;DHT22;8369;48.030;11.598;2023-07-13T10:08:49;20.00;99.90
16513;DHT22;8369;48.030;11.598;2023-07-13T10:11:29;20.00;99.90
16513;DHT22;8369;48.030;11.598;2023-07-13T10:13:58;20.00;99.90
16513;DHT22;8369;48.030;11.598;2023-07-13T10:16:31;20.00;99.90
16513;DHT22;8369;48.030;11.598;2023-07-13T10:19:17;20.10;99.90
16513;DHT22;8369;48.030;11.598;2023-07-13T10:21:52;20.20;99.90
16513;DHT22;8369;48.030;11.598;2023-07-13T10:24:23;20.40;99.90
16513;DHT22;8369;48.030;11.598;2023-07-13T10:30:01;20.70;99.90
16513;DHT22;8369;48.030;11.598;2023-07-13T10:32:27;20.90;99.90
16513;DHT22;8369;48.030;11.598;2023-07-13T10:34:54;21.00;99.90
16513;DHT22;8369;48.030;11.598;2023-07-13T10:37:26;21.10;99.90
16513;DHT22;8369;48.030;11.598;2023-07-13T10:39:55;21.20;99.90
16513;DHT22;8369;48.030;11.598;2023-07-13T10:42:34;21.20;99.90
16513;DHT22;8369;48.030;11.598;2023-07-13T10:45:01;21.30;99.90
16513;DHT22;8369;48.030;11.598;2023-07-13T10:47:28;21.50;99.90
16513;DHT22;8369;48.030;11.598;2023-07-13T10:49:58;21.70;99.90
16513;DHT22;8369;48.030;11.598;2023-07-13T10:52:47;21.90;99.90
16513;DHT22;8369;48.030;11.598;2023-07-13T10:56:16;22.20;98.40
16513;DHT22;8369;48.030;11.598;2023-07-13T10:58:36;22.30;95.60
16513;DHT22;8369;48.030;11.598;2023-07-13T11:01:07;22.50;95.50
16513;DHT22;8369;48.030;11.598;2023-07-13T11:03:53;22.60;93.80
16513;DHT22;8369;48.030;11.598;2023-07-13T11:19:08;23.00;93.50
16513;DHT22;8369;48.030;11.598;2023-07-13T11:21:35;23.30;89.50
16513;DHT22;8369;48.030;11.598;2023-07-13T11:26:43;23.70;89.50
16513;DHT22;8369;48.030;11.598;2023-07-13T11:32:11;23.90;87.40
16513;DHT22;8369;48.030;11.598;2023-07-13T11:34:47;23.90;89.80
16513;DHT22;8369;48.030;11.598;2023-07-13T11:37:16;23.80;89.10
16513;DHT22;8369;48.030;11.598;2023-07-13T11:39:45;23.80;88.90
16513;DHT22;8369;48.030;11.598;2023-07-13T11:42:15;23.90;90.10
16513;DHT22;8369;48.030;11.598;2023-07-13T11:44:46;24.00;90.00
16513;DHT22;8369;48.030;11.598;2023-07-13T11:47:21;24.10;89.20
16513;DHT22;8369;48.030;11.598;2023-07-13T11:49:53;24.10;90.80
16513;DHT22;8369;48.030;11.598;2023-07-13T11:52:23;24.30;91.20
16513;DHT22;8369;48.030;11.598;2023-07-13T11:54:55;24.40;91.90
16513;DHT22;8369;48.030;11.598;2023-07-13T11:57:30;24.40;90.40
16513;DHT22;8369;48.030;11.598;2023-07-13T12:00:09;24.50;89.10
16513;DHT22;8369;48.030;11.598;2023-07-13T12:02:40;24.50;88.00
16513;DHT22;8369;48.030;11.598;2023-07-13T12:05:12;24.40;89.20
16513;DHT22;8369;48.030;11.598;2023-07-13T12:07:39;24.40;88.00
16513;DHT22;8369;48.030;11.598;2023-07-13T12:12:40;24.60;85.40
16513;DHT22;8369;48.030;11.598;2023-07-13T12:15:12;24.70;85.90
16513;DHT22;8369;48.030;11.598;2023-07-13T12:17:38;24.60;81.30
16513;DHT22;8369;48.030;11.598;2023-07-13T12:20:21;24.60;83.70
16513;DHT22;8369;48.030;11.598;2023-07-13T12:22:48;24.60;84.70
16513;DHT22;8369;48.030;11.598;2023-07-13T12:25:15;24.70;86.20
16513;DHT22;8369;48.030;11.598;2023-07-13T12:27:50;24.90;84.50
16513;DHT22;8369;48.030;11.598;2023-07-13T12:30:31;25.00;82.40
16513;DHT22;8369;48.030;11.598;2023-07-13T12:33:12;25.00;73.00
16513;DHT22;8369;48.030;11.598;2023-07-13T12:35:49;25.00;74.60
16513;DHT22;8369;48.030;11.598;2023-07-13T12:38:18;24.90;73.20
16513;DHT22;8369;48.030;11.598;2023-07-13T12:40:50;24.90;74.40
16513;DHT22;8369;48.030;11.598;2023-07-13T12:43:20;24.80;73.60
16513;DHT22;8369;48.030;11.598;2023-07-13T12:45:58;25.00;72.70
16513;DHT22;8369;48.030;11.598;2023-07-13T12:48:39;25.00;71.80
16513;DHT22;8369;48.030;11.598;2023-07-13T12:51:13;25.00;74.60
16513;DHT22;8369;48.030;11.598;2023-07-13T12:53:43;25.20;75.80
16513;DHT22;8369;48.030;11.598;2023-07-13T12:56:23;25.30;74.70
16513;DHT22;8369;48.030;11.598;2023-07-13T12:58:56;25.40;72.30
16513;DHT22;8369;48.030;11.598;2023-07-13T13:01:26;25.40;72.30
16513;DHT22;8369;48.030;11.598;2023-07-13T13:03:54;25.40;72.10
16513;DHT22;8369;48.030;11.598;2023-07-13T13:06:25;25.30;72.00
16513;DHT22;8369;48.030;11.598;2023-07-13T13:08:56;25.20;73.30
16513;DHT22;8369;48.030;11.598;2023-07-13T13:11:28;25.30;72.10
16513;DHT22;8369;48.030;11.598;2023-07-13T13:13:54;25.20;71.50
16513;DHT22;8369;48.030;11.598;2023-07-13T13:16:21;25.30;73.00
16513;DHT22;8369;48.030;11.598;2023-07-13T13:18:48;25.30;71.70
16513;DHT22;8369;48.030;11.598;2023-07-13T13:21:16;25.30;72.00
16513;DHT22;8369;48.030;11.598;2023-07-13T13:23:42;25.30;72.60
16513;DHT22;8369;48.030;11.598;2023-07-13T13:26:14;25.30;71.80
16513;DHT22;8369;48.030;11.598;2023-07-13T13:28:44;25.30;72.70
16513;DHT22;8369;48.030;11.598;2023-07-13T13:31:12;25.30;72.40
16513;DHT22;8369;48.030;11.598;2023-07-13T13:33:40;25.30;73.30
16513;DHT22;8369;48.030;11.598;2023-07-13T13:36:17;25.40;74.70
16513;DHT22;8369;48.030;11.598;2023-07-13T13:38:43;25.60;73.90
16513;DHT22;8369;48.030;11.598;2023-07-13T13:41:11;25.60;73.30
16513;DHT22;8369;48.030;11.598;2023-07-13T13:43:39;25.80;73.60
16513;DHT22;8369;48.030;11.598;2023-07-13T13:46:14;26.00;73.90
16513;DHT22;8369;48.030;11.598;2023-07-13T13:48:41;26.00;72.70
16513;DHT22;8369;48.030;11.598;2023-07-13T13:51:18;26.10;73.90
16513;DHT22;8369;48.030;11.598;2023-07-13T13:53:45;26.00;72.90
16513;DHT22;8369;48.030;11.598;2023-07-13T13:56:12;26.10;71.70
16513;DHT22;8369;48.030;11.598;2023-07-13T13:58:39;26.00;70.60
16513;DHT22;8369;48.030;11.598;2023-07-13T14:01:17;25.80;70.90
16513;DHT22;8369;48.030;11.598;2023-07-13T14:03:44;25.80;72.00
16513;DHT22;8369;48.030;11.598;2023-07-13T14:06:17;25.70;70.00
16513;DHT22;8369;48.030;11.598;2023-07-13T14:08:43;25.60;72.70
16513;DHT22;8369;48.030;11.598;2023-07-13T14:11:14;25.40;73.00
16513;DHT22;8369;48.030;11.598;2023-07-13T14:14:04;25.30;73.00
16513;DHT22;8369;48.030;11.598;2023-07-13T14:16:31;25.20;74.10
16513;DHT22;8369;48.030;11.598;2023-07-13T14:18:59;25.10;73.20
16513;DHT22;8369;48.030;11.598;2023-07-13T14:21:28;25.00;74.70
16513;DHT22;8369;48.030;11.598;2023-07-13T14:23:55;24.90;75.60
16513;DHT22;8369;48.030;11.598;2023-07-13T14:26:26;24.90;76.10
16513;DHT22;8369;48.030;11.598;2023-07-13T14:28:56;25.00;76.50
16513;DHT22;8369;48.030;11.598;2023-07-13T14:31:24;25.20;75.20
16513;DHT22;8369;48.030;11.598;2023-07-13T14:33:51;25.20;73.30
16513;DHT22;8369;48.030;11.598;2023-07-13T14:36:31;25.30;73.20
16513;DHT22;8369;48.030;11.598;2023-07-13T14:38:59;25.30;74.10
16513;DHT22;8369;48.030;11.598;2023-07-13T14:41:28;25.30;73.80
16513;DHT22;8369;48.030;11.598;2023-07-13T14:43:55;25.30;74.10
16513;DHT22;8369;48.030;11.598;2023-07-13T14:46:29;25.30;74.40
16513;DHT22;8369;48.030;11.598;2023-07-13T14:49:20;25.20;75.30
16513;DHT22;8369;48.030;11.598;2023-07-13T14:51:49;25.30;76.20
16513;DHT22;8369;48.030;11.598;2023-07-13T14:54:15;25.40;74.70
16513;DHT22;8369;48.030;11.598;2023-07-13T14:56:41;25.50;73.80
16513;DHT22;8369;48.030;11.598;2023-07-13T14:59:07;25.50;75.20
16513;DHT22;8369;48.030;11.598;2023-07-13T15:01:37;25.50;72.30
16513;DHT22;8369;48.030;11.598;2023-07-13T15:04:04;25.40;68.90
16513;DHT22;8369;48.030;11.598;2023-07-13T15:06:30;25.40;70.00
16513;DHT22;8369;48.030;11.598;2023-07-13T15:08:57;25.40;70.60
16513;DHT22;8369;48.030;11.598;2023-07-13T15:11:23;25.40;71.40
16513;DHT22;8369;48.030;11.598;2023-07-13T15:13:50;25.40;73.20
16513;DHT22;8369;48.030;11.598;2023-07-13T15:16:24;25.40;74.10
16513;DHT22;8369;48.030;11.598;2023-07-13T15:18:51;25.50;70.60
16513;DHT22;8369;48.030;11.598;2023-07-13T15:21:21;25.50;70.70
16513;DHT22;8369;48.030;11.598;2023-07-13T15:23:49;25.50;71.10
16513;DHT22;8369;48.030;11.598;2023-07-13T15:26:18;25.50;70.70
16513;DHT22;8369;48.030;11.598;2023-07-13T15:28:45;25.50;72.00
16513;DHT22;8369;48.030;11.598;2023-07-13T15:31:24;25.50;71.80
16513;DHT22;8369;48.030;11.598;2023-07-13T15:33:52;25.60;71.80
16513;DHT22;8369;48.030;11.598;2023-07-13T15:39:29;25.60;68.30
16513;DHT22;8369;48.030;11.598;2023-07-13T15:41:57;25.50;70.30
16513;DHT22;8369;48.030;11.598;2023-07-13T15:44:27;25.40;70.10
16513;DHT22;8369;48.030;11.598;2023-07-13T15:46:54;25.40;70.40
16513;DHT22;8369;48.030;11.598;2023-07-13T15:49:21;25.50;70.10
16513;DHT22;8369;48.030;11.598;2023-07-13T15:51:47;25.50;68.60
16513;DHT22;8369;48.030;11.598;2023-07-13T15:54:16;25.50;66.80
16513;DHT22;8369;48.030;11.598;2023-07-13T15:56:51;25.60;67.60
16513;DHT22;8369;48.030;11.598;2023-07-13T15:59:18;25.60;65.90
16513;DHT22;8369;48.030;11.598;2023-07-13T16:01:45;25.50;65.40
16513;DHT22;8369;48.030;11.598;2023-07-13T16:04:14;25.50;65.70
16513;DHT22;8369;48.030;11.598;2023-07-13T16:06:41;25.40;64.70
16513;DHT22;8369;48.030;11.598;2023-07-13T16:09:31;25.40;63.60
16513;DHT22;8369;48.030;11.598;2023-07-13T16:11:56;25.40;65.70
16513;DHT22;8369;48.030;11.598;2023-07-13T16:14:23;25.30;66.20
16513;DHT22;8369;48.030;11.598;2023-07-13T16:16:51;25.30;65.30
16513;DHT22;8369;48.030;11.598;2023-07-13T16:19:20;25.20;65.90
16513;DHT22;8369;48.030;11.598;2023-07-13T16:21:54;25.10;66.80
16513;DHT22;8369;48.030;11.598;2023-07-13T16:24:22;25.20;67.10
16513;DHT22;8369;48.030;11.598;2023-07-13T16:26:50;25.20;66.20
16513;DHT22;8369;48.030;11.598;2023-07-13T16:29:19;25.10;66.90
16513;DHT22;8369;48.030;11.598;2023-07-13T16:32:32;25.10;66.80
16513;DHT22;8369;48.030;11.598;2023-07-13T16:34:51;25.10;68.20